Dequincy, LA

6:55 AM CDT on July 28, 2016 (GMT -0500)
De Quincy Industrial Air Park

Weather History for K5R8 - March, 2014

Change the Weather History Date:

Thursday, March 13, 2014

  Actual Average (KLCH) Record (KLCH)
Temperature  
Mean Temperature 48 °F 61 °F  
Max Temperature 65 °F 71 °F 84 °F (1928)
Min Temperature 32 °F 51 °F 29 °F (1948)
Degree Days  
Heating Degree Days 16 6  
Month to date heating degree days 88  
Since 1 July heating degree days 1370  
Cooling Degree Days 0 1  
Month to date cooling degree days 13  
Year to date cooling degree days 36  
Moisture  
Dew Point 33 °F    
Average Humidity 61    
Maximum Humidity 96    
Minimum Humidity 27    
Precipitation  
Precipitation 0.00 in 0.10 in 2.24 in (2003)
Month to date precipitation 1.55  
Year to date precipitation 10.24  
Snow  
Snow 0.00 in 0.00 in 0.00 in ()
Month to date snowfall 0.0  
Since 1 July snowfall 0.1  
Snow Depth -    
Sea Level Pressure  
Sea Level Pressure 30.26 in    
Wind  
Wind Speed 2 mph (SSE)    
Max Wind Speed 12 mph    
Max Gust Speed 17 mph    
Visibility 10 miles    
Events      
T = Trace of Precipitation, MM = Missing Value Source: NWS Daily Summary

Daily Weather History Graph

Daily Weather History Graph

Search for Another Location

Airport or City:

Trip Planner

Search our weather history database for the weather conditions in past years. The results will help you decide how hot, cold, wet, or windy it might be!

Date:

Astronomy

Mar. 13, 2014 Rise Set
Actual Time 7:26 AM CDT 7:20 PM CDT
Civil Twilight 7:02 AM CDT 7:44 PM CDT
Nautical Twilight 6:34 AM CDT 8:12 PM CDT
Astronomical Twilight 6:06 AM CDT 8:40 PM CDT
Moon 4:55 PM CDT (3/13) 5:23 AM CDT (3/13)
Length of Visible Light 12h 42m
Length of Day
11h 54m
Waxing Gibbous, 91% of the Moon is Illuminated
Mar 13
Waxing Gibbous
Mar 16
Full
Mar 23
Last Quarter
Mar 30
New
Apr 7
First Quarter

Hourly Weather History & Observations

Time (CDT) Temp. Windchill Dew Point Humidity Pressure Visibility Wind Dir Wind Speed Gust Speed Precip Events Conditions
12:15 AM 41.5 °F - 33.4 °F 73% 30.22 in 10.0 mi Calm Calm - N/A   Clear
12:35 AM 41.9 °F - 33.8 °F 73% 30.23 in 10.0 mi Calm Calm - N/A   Clear
12:55 AM 40.3 °F - 34.2 °F 79% 30.23 in 10.0 mi Calm Calm - N/A   Clear
1:15 AM 39.4 °F - 35.4 °F 86% 30.23 in 10.0 mi Calm Calm - N/A   Clear
1:35 AM 39.2 °F 37.0 °F 33.8 °F 81% 30.23 in 10.0 mi NNW 3.5 mph - N/A   Clear
1:55 AM 39.4 °F - 32.5 °F 76% 30.24 in 10.0 mi Calm Calm - N/A   Clear
2:15 AM 38.7 °F - 33.4 °F 81% 30.24 in 10.0 mi Calm Calm - N/A   Clear
2:35 AM 37.6 °F - 34.5 °F 89% 30.24 in 10.0 mi Calm Calm - N/A   Clear
2:55 AM 36.7 °F - 33.1 °F 87% 30.24 in 10.0 mi Calm Calm - N/A   Clear
3:15 AM 36.3 °F - 33.6 °F 90% 30.24 in 10.0 mi Calm Calm - N/A   Clear
3:35 AM 36.0 °F - 32.4 °F 87% 30.24 in 10.0 mi Calm Calm - N/A   Clear
3:55 AM 35.6 °F 32.8 °F 32.0 °F 87% 30.25 in 10.0 mi ENE 3.5 mph - N/A   Clear
4:15 AM 36.5 °F - 32.2 °F 84% 30.25 in 10.0 mi Calm Calm - N/A   Clear
4:35 AM 35.1 °F - 32.0 °F 89% 30.26 in 10.0 mi Calm Calm - N/A   Clear
4:55 AM 34.7 °F - 32.0 °F 90% 30.26 in 10.0 mi Calm Calm - N/A   Clear
5:15 AM 34.5 °F - 32.0 °F 90% 30.27 in 10.0 mi Calm Calm - N/A   Clear
5:35 AM 33.8 °F 30.8 °F 31.6 °F 92% 30.27 in 10.0 mi NNW 3.5 mph - N/A   Clear
5:55 AM 34.7 °F - 31.1 °F 87% 30.27 in 10.0 mi Calm Calm - N/A   Clear
6:15 AM 33.6 °F - 31.8 °F 93% 30.28 in 10.0 mi Calm Calm - N/A   Clear
6:35 AM 33.3 °F - 32.0 °F 95% 30.28 in 10.0 mi Calm Calm - N/A   Clear
6:55 AM 32.7 °F - 31.3 °F 94% 30.28 in 10.0 mi Calm Calm - N/A   Clear
7:15 AM 32.4 °F - 31.5 °F 96% 30.29 in 10.0 mi Calm Calm - N/A   Clear
7:35 AM 32.0 °F 28.7 °F 30.9 °F 96% 30.29 in 10.0 mi NNW 3.5 mph - N/A   Clear
7:55 AM 32.7 °F - 31.5 °F 95% 30.30 in 10.0 mi Calm Calm - N/A   Clear
8:15 AM 36.0 °F - 33.4 °F 91% 30.31 in 10.0 mi Calm Calm - N/A   Clear
8:35 AM 39.2 °F - 34.0 °F 82% 30.32 in 10.0 mi Calm Calm - N/A   Clear
8:55 AM 43.7 °F - 35.2 °F 72% 30.33 in 10.0 mi Calm Calm - N/A   Clear
9:15 AM 46.6 °F - 31.8 °F 56% 30.34 in 10.0 mi Calm Calm - N/A   Clear
9:35 AM 49.3 °F - 32.7 °F 53% 30.34 in 10.0 mi Calm Calm - N/A   Clear
9:55 AM 52.3 °F - 32.7 °F 47% 30.35 in 10.0 mi Calm Calm - N/A   Clear
10:15 AM 54.5 °F - 30.2 °F 39% 30.35 in 10.0 mi East 4.6 mph - N/A   Clear
10:35 AM 55.4 °F - 27.9 °F 35% 30.35 in 10.0 mi SE 4.6 mph - N/A   Clear
10:55 AM 56.7 °F - 27.9 °F 33% 30.35 in 10.0 mi ENE 4.6 mph - N/A   Clear
11:15 AM 56.8 °F - 26.8 °F 32% 30.34 in 10.0 mi SE 8.1 mph - N/A   Clear
11:35 AM 57.4 °F - 27.7 °F 32% 30.34 in 10.0 mi ESE 6.9 mph - N/A   Clear
11:55 AM 57.6 °F - 27.0 °F 31% 30.33 in 10.0 mi SSE 3.5 mph - N/A   Clear
12:15 PM 58.3 °F - 26.4 °F 30% 30.33 in 10.0 mi Calm Calm - N/A   Clear
12:35 PM 59.9 °F - 28.4 °F 30% 30.32 in 10.0 mi SE 3.5 mph - N/A   Clear
12:55 PM 60.4 °F - 28.9 °F 30% 30.32 in 10.0 mi SE 5.8 mph - N/A   Clear
1:15 PM 61.2 °F - 28.9 °F 30% 30.31 in 10.0 mi SW 3.5 mph - N/A   Clear
1:35 PM 61.5 °F - 28.8 °F 29% 30.30 in 10.0 mi Calm Calm - N/A   Clear
1:55 PM 62.8 °F - 29.5 °F 29% 30.29 in 10.0 mi Calm Calm - N/A   Clear
2:15 PM 62.8 °F - 29.8 °F 29% 30.28 in 10.0 mi SE 6.9 mph - N/A   Clear
2:35 PM 63.0 °F - 30.0 °F 29% 30.27 in 10.0 mi East 3.5 mph - N/A   Clear
2:55 PM 63.5 °F - 29.1 °F 27% 30.26 in 10.0 mi South 3.5 mph - N/A   Clear
3:15 PM 63.7 °F - 28.9 °F 27% 30.26 in 10.0 mi Calm Calm - N/A   Clear
3:35 PM 64.0 °F - 29.1 °F 27% 30.25 in 10.0 mi Calm Calm - N/A   Clear
3:55 PM 65.3 °F - 31.3 °F 28% 30.25 in 10.0 mi South 6.9 mph - N/A   Clear
4:15 PM 65.1 °F - 32.4 °F 29% 30.24 in 10.0 mi South 9.2 mph - N/A   Clear
4:35 PM 64.4 °F - 32.4 °F 30% 30.23 in 10.0 mi SSW 4.6 mph - N/A   Clear
4:55 PM 64.6 °F - 33.8 °F 32% 30.23 in 10.0 mi South 9.2 mph - N/A   Clear
5:15 PM 64.0 °F - 32.5 °F 31% 30.23 in 10.0 mi SSW 8.1 mph - N/A   Clear
5:35 PM 63.5 °F - 32.5 °F 31% 30.22 in 10.0 mi South 9.2 mph - N/A   Clear
5:55 PM 62.4 °F - 32.5 °F 33% 30.22 in 10.0 mi SSE 6.9 mph - N/A   Clear
6:15 PM 61.3 °F - 33.6 °F 35% 30.22 in 10.0 mi South 10.4 mph - N/A   Clear
6:35 PM 60.1 °F - 37.0 °F 42% 30.22 in 10.0 mi South 11.5 mph 17.3 mph N/A   Clear
6:55 PM 57.6 °F - 37.4 °F 47% 30.22 in 10.0 mi South 8.1 mph - N/A   Clear
7:15 PM 56.5 °F - 37.4 °F 49% 30.22 in 10.0 mi South 6.9 mph - N/A   Clear
7:35 PM 54.7 °F - 37.4 °F 52% 30.22 in 10.0 mi South 6.9 mph - N/A   Clear
7:55 PM 53.1 °F - 37.2 °F 55% 30.22 in 10.0 mi South 3.5 mph - N/A   Clear
8:15 PM 51.4 °F - 37.4 °F 59% 30.22 in 10.0 mi South 3.5 mph - N/A   Clear
8:35 PM 50.9 °F - 37.6 °F 60% 30.22 in 10.0 mi SSE 3.5 mph - N/A   Clear
8:55 PM 49.8 °F - 37.8 °F 63% 30.22 in 10.0 mi SSE 3.5 mph - N/A   Clear
9:15 PM 48.6 °F - 37.9 °F 67% 30.22 in 10.0 mi SSE 4.6 mph - N/A   Clear
9:35 PM 48.4 °F - 38.1 °F 68% 30.22 in 10.0 mi SSE 4.6 mph - N/A   Clear
9:55 PM 47.8 °F - 38.3 °F 70% 30.22 in 10.0 mi SSE 3.5 mph - N/A   Clear
10:15 PM 46.4 °F 45.2 °F 38.3 °F 73% 30.21 in 10.0 mi SSE 3.5 mph - N/A   Clear
10:35 PM 46.2 °F 45.0 °F 38.1 °F 73% 30.22 in 10.0 mi SSE 3.5 mph - N/A   Clear
10:55 PM 45.5 °F 44.2 °F 38.3 °F 76% 30.22 in 10.0 mi SSE 3.5 mph - N/A   Clear
11:15 PM 44.8 °F 43.3 °F 38.3 °F 78% 30.22 in 10.0 mi South 3.5 mph - N/A   Clear
11:35 PM 43.2 °F - 38.3 °F 83% 30.21 in 10.0 mi Calm Calm - N/A   Clear
11:55 PM 41.2 °F - 38.1 °F 89% 30.20 in 10.0 mi Calm Calm - N/A   Clear